createdAt,value
2017-05-07T00:00:12.336Z,19.08
2017-05-07T00:00:31.762Z,19.25
2017-05-07T00:00:51.716Z,19.27
2017-05-07T00:01:11.705Z,19.28
2017-05-07T00:01:31.124Z,19.25
2017-05-07T00:01:51.065Z,19.35
2017-05-07T00:02:11.012Z,19.27
2017-05-07T00:02:30.455Z,19.23
2017-05-07T00:02:50.056Z,19.31
2017-05-07T00:03:10.057Z,19.14
2017-05-07T00:03:29.450Z,19.2
2017-05-07T00:03:49.401Z,19.11
2017-05-07T00:04:09.347Z,19.32
2017-05-07T00:04:28.758Z,19.27
2017-05-07T00:04:48.726Z,19.18
2017-05-07T00:05:08.677Z,19.24
2017-05-07T00:05:27.536Z,19.08
2017-05-07T00:05:47.501Z,19.2
2017-05-07T00:06:07.471Z,19.28
2017-05-07T00:06:26.913Z,19.25
2017-05-07T00:06:46.884Z,19.28
2017-05-07T00:07:06.869Z,19.28
2017-05-07T00:07:25.722Z,19.28
2017-05-07T00:07:45.695Z,19.28
2017-05-07T00:08:05.137Z,19.28
2017-05-07T00:08:24.553Z,19.32
2017-05-07T00:08:44.579Z,19.25
2017-05-07T00:09:03.993Z,19.36
2017-05-07T00:09:23.954Z,19.31
2017-05-07T00:09:43.928Z,19.32
2017-05-07T00:10:03.904Z,19.27
2017-05-07T00:10:23.319Z,19.31
2017-05-07T00:10:42.741Z,19.31
2017-05-07T00:11:02.688Z,19.28
2017-05-07T00:11:22.662Z,19.2
2017-05-07T00:11:42.650Z,19.25
2017-05-07T00:12:02.055Z,19.24
2017-05-07T00:12:21.435Z,19.11
2017-05-07T00:12:41.898Z,19.17
2017-05-07T00:13:01.901Z,19.2
2017-05-07T00:13:21.989Z,19.14
2017-05-07T00:13:41.433Z,19.25
2017-05-07T00:14:01.463Z,19.21
2017-05-07T00:14:21.503Z,19.15
2017-05-07T00:14:41.492Z,19.14
2017-05-07T00:15:01.423Z,19.17
2017-05-07T00:15:21.486Z,19.14
2017-05-07T00:15:41.469Z,19.15
2017-05-07T00:16:01.648Z,19.08
2017-05-07T00:16:20.506Z,19.13
2017-05-07T00:16:40.466Z,19.08
2017-05-07T00:17:00.441Z,19.05
2017-05-07T00:17:19.889Z,19.13
2017-05-07T00:17:38.766Z,19.05
2017-05-07T00:17:58.747Z,19.13
2017-05-07T00:18:18.725Z,19.06
2017-05-07T00:18:38.712Z,19.14
2017-05-07T00:18:58.694Z,19.08
2017-05-07T00:19:18.675Z,19.11
2017-05-07T00:19:38.662Z,19.11
2017-05-07T00:19:58.689Z,19.17
2017-05-07T00:20:18.106Z,19.18
2017-05-07T00:20:37.519Z,19.14
2017-05-07T00:20:56.972Z,19.2
2017-05-07T00:21:17.014Z,19.2
2017-05-07T00:21:35.869Z,19.09
2017-05-07T00:21:55.961Z,19.06
2017-05-07T00:22:15.398Z,19.18
2017-05-07T00:22:35.383Z,19.11
2017-05-07T00:22:55.343Z,19.05
2017-05-07T00:23:15.355Z,18.99
2017-05-07T00:23:35.347Z,19.11
2017-05-07T00:23:55.391Z,19.17
2017-05-07T00:24:15.368Z,19.09
2017-05-07T00:24:35.341Z,18.98
2017-05-07T00:24:55.358Z,19.13
2017-05-07T00:25:14.789Z,19.06
2017-05-07T00:25:34.771Z,19.13
2017-05-07T00:25:54.779Z,18.97
2017-05-07T00:26:14.801Z,19.09
2017-05-07T00:26:34.763Z,19.08
2017-05-07T00:26:54.185Z,19.08
2017-05-07T00:27:13.610Z,19.01
2017-05-07T00:27:33.576Z,18.98
2017-05-07T00:27:53.554Z,18.97
2017-05-07T00:28:12.953Z,18.98
2017-05-07T00:28:32.405Z,19.13
2017-05-07T00:28:52.355Z,19.09
2017-05-07T00:29:11.811Z,19.15
2017-05-07T00:29:31.847Z,19.13
2017-05-07T00:29:52.365Z,19.2
2017-05-07T00:30:11.786Z,19.08
2017-05-07T00:30:31.215Z,19.15
2017-05-07T00:30:51.196Z,19.09
2017-05-07T00:31:11.232Z,19.08
2017-05-07T00:31:30.658Z,18.97
2017-05-07T00:31:50.670Z,18.95
2017-05-07T00:32:10.727Z,19.14
2017-05-07T00:32:30.777Z,19.18
2017-05-07T00:32:50.299Z,19.09
2017-05-07T00:33:10.341Z,18.95
2017-05-07T00:33:30.323Z,19.08
2017-05-07T00:33:50.314Z,19.13
2017-05-07T00:34:09.723Z,19.08
2017-05-07T00:34:29.717Z,19.01
2017-05-07T00:34:49.696Z,18.97
2017-05-07T00:35:09.094Z,19.17
2017-05-07T00:35:29.057Z,19.08
2017-05-07T00:35:49.038Z,18.99
2017-05-07T00:36:09.012Z,18.95
2017-05-07T00:36:28.987Z,19.01
2017-05-07T00:36:48.988Z,19.09
2017-05-07T00:37:08.978Z,19.09
2017-05-07T00:37:28.383Z,19.08
2017-05-07T00:37:48.380Z,18.97
2017-05-07T00:38:08.327Z,19.09
2017-05-07T00:38:28.297Z,18.98
2017-05-07T00:38:48.325Z,19.11
2017-05-07T00:39:08.292Z,19.05
2017-05-07T00:39:28.156Z,19.06
2017-05-07T00:39:48.125Z,19.11
2017-05-07T00:40:07.763Z,19.11
2017-05-07T00:40:27.443Z,19.13
2017-05-07T00:40:47.588Z,19.14
2017-05-07T00:41:07.519Z,19.06
2017-05-07T00:41:27.526Z,19.14
2017-05-07T00:41:47.520Z,19.13
2017-05-07T00:42:07.553Z,19.13
2017-05-07T00:42:27.529Z,19.02
2017-05-07T00:42:47.507Z,18.98
2017-05-07T00:43:07.521Z,19.01
2017-05-07T00:43:26.395Z,19.06
2017-05-07T00:43:46.378Z,19.09
2017-05-07T00:44:06.341Z,19.09
2017-05-07T00:44:25.798Z,19.09
2017-05-07T00:44:45.776Z,19.11
2017-05-07T00:45:05.748Z,19.08
2017-05-07T00:45:25.786Z,19.11
2017-05-07T00:45:45.747Z,19.21
2017-05-07T00:46:05.723Z,19.15
2017-05-07T00:46:25.686Z,18.99
2017-05-07T00:46:44.554Z,19.02
2017-05-07T00:47:04.507Z,18.95
2017-05-07T00:47:23.926Z,18.98
2017-05-07T00:47:43.889Z,19.06
2017-05-07T00:48:03.413Z,18.98
2017-05-07T00:48:23.415Z,19.01
2017-05-07T00:48:43.468Z,19.05
2017-05-07T00:49:03.026Z,19.11
2017-05-07T00:49:21.975Z,19.11
2017-05-07T00:49:42.001Z,18.97
2017-05-07T00:50:01.450Z,19.09
2017-05-07T00:50:21.433Z,19.13
2017-05-07T00:50:41.401Z,19.11
2017-05-07T00:51:00.892Z,18.99
2017-05-07T00:51:20.878Z,19.01
2017-05-07T00:51:40.836Z,19.08
2017-05-07T00:52:00.822Z,18.99
2017-05-07T00:52:20.818Z,19.06
2017-05-07T00:52:40.879Z,19.17
2017-05-07T00:53:00.870Z,19.15
2017-05-07T00:53:20.292Z,19.17
2017-05-07T00:53:40.247Z,19.13
2017-05-07T00:54:00.255Z,19.06
2017-05-07T00:54:19.078Z,19.06
2017-05-07T00:54:39.065Z,19.11
2017-05-07T00:54:59.066Z,19.2
2017-05-07T00:55:18.477Z,19.14
2017-05-07T00:55:38.454Z,19.24
2017-05-07T00:55:58.434Z,19.18
2017-05-07T00:56:17.842Z,19.18
2017-05-07T00:56:37.805Z,19.15
2017-05-07T00:56:57.792Z,19.15
2017-05-07T00:57:17.725Z,19.15
2017-05-07T00:57:37.839Z,19.11
2017-05-07T00:57:57.814Z,19.09
2017-05-07T00:58:17.776Z,19.08
2017-05-07T00:58:36.066Z,19.09
2017-05-07T00:58:56.029Z,19.13
2017-05-07T00:59:16.003Z,19.15
2017-05-07T00:59:35.986Z,19.13
2017-05-07T00:59:55.953Z,19.11
2017-05-07T01:00:15.956Z,19.15
2017-05-07T01:00:35.909Z,19.15
2017-05-07T01:00:55.870Z,19.11
2017-05-07T01:01:15.313Z,19.13
2017-05-07T01:01:35.284Z,19.09
2017-05-07T01:01:55.244Z,19.09
2017-05-07T01:02:14.140Z,19.15
2017-05-07T01:02:34.094Z,19.09
2017-05-07T01:02:54.024Z,19.24
2017-05-07T01:03:13.433Z,19.25
2017-05-07T01:03:33.449Z,19.21
2017-05-07T01:03:53.429Z,19.2
2017-05-07T01:04:13.427Z,19.23
2017-05-07T01:04:33.443Z,19.28
2017-05-07T01:04:52.861Z,19.23
2017-05-07T01:05:12.845Z,19.24
2017-05-07T01:05:32.834Z,19.2
2017-05-07T01:05:52.842Z,19.28
2017-05-07T01:06:12.782Z,19.21
2017-05-07T01:06:31.643Z,19.35
2017-05-07T01:06:51.084Z,19.27
2017-05-07T01:07:11.129Z,19.21
2017-05-07T01:07:30.529Z,19.27
2017-05-07T01:07:50.794Z,19.31
2017-05-07T01:08:10.223Z,19.38
2017-05-07T01:08:29.666Z,19.27
2017-05-07T01:08:49.636Z,19.31
2017-05-07T01:09:09.614Z,19.28
2017-05-07T01:09:29.584Z,19.33
2017-05-07T01:09:49.038Z,19.33
2017-05-07T01:10:08.450Z,19.33
2017-05-07T01:10:27.337Z,19.33
2017-05-07T01:10:46.782Z,19.28
2017-05-07T01:11:06.803Z,19.38
2017-05-07T01:11:26.271Z,19.31
2017-05-07T01:11:46.280Z,19.31
2017-05-07T01:12:06.252Z,19.27
2017-05-07T01:12:25.679Z,19.4
2017-05-07T01:12:45.122Z,19.33
2017-05-07T01:13:05.106Z,19.4
2017-05-07T01:13:23.970Z,19.31
2017-05-07T01:13:43.992Z,19.32
2017-05-07T01:14:04.046Z,19.32
2017-05-07T01:14:23.544Z,19.24
2017-05-07T01:14:42.404Z,19.31
2017-05-07T01:15:02.384Z,19.35
2017-05-07T01:15:22.463Z,19.31
2017-05-07T01:15:42.448Z,19.4
2017-05-07T01:16:02.413Z,19.4
2017-05-07T01:16:22.355Z,19.28
2017-05-07T01:16:42.400Z,19.43
2017-05-07T01:17:02.450Z,19.33
2017-05-07T01:17:22.430Z,19.38
2017-05-07T01:17:42.430Z,19.33
2017-05-07T01:18:02.420Z,19.32
2017-05-07T01:18:21.867Z,19.42
2017-05-07T01:18:41.882Z,19.4
2017-05-07T01:19:01.874Z,19.42
2017-05-07T01:19:21.282Z,19.36
2017-05-07T01:19:41.292Z,19.35
2017-05-07T01:20:01.301Z,19.4
2017-05-07T01:20:20.758Z,19.42
2017-05-07T01:20:40.702Z,19.31
2017-05-07T01:21:00.724Z,19.32
2017-05-07T01:21:20.676Z,19.32
2017-05-07T01:21:40.708Z,19.28
2017-05-07T01:22:00.107Z,19.33
2017-05-07T01:22:18.968Z,19.33
2017-05-07T01:22:38.937Z,19.33
2017-05-07T01:22:58.949Z,19.25
2017-05-07T01:23:18.967Z,19.38
2017-05-07T01:23:38.998Z,19.33
2017-05-07T01:23:58.992Z,19.28
2017-05-07T01:24:18.456Z,19.32
2017-05-07T01:24:37.294Z,19.2
2017-05-07T01:24:57.279Z,19.2
2017-05-07T01:25:16.700Z,19.31
2017-05-07T01:25:36.639Z,19.32
2017-05-07T01:25:56.646Z,19.33
2017-05-07T01:26:16.052Z,19.28
2017-05-07T01:26:35.478Z,19.31
2017-05-07T01:26:55.445Z,19.23
2017-05-07T01:27:14.943Z,19.17
2017-05-07T01:27:34.988Z,19.14
2017-05-07T01:27:54.474Z,19.21
2017-05-07T01:28:14.556Z,19.24
2017-05-07T01:28:33.978Z,19.23
2017-05-07T01:28:54.005Z,19.24
2017-05-07T01:29:13.424Z,19.23
2017-05-07T01:29:33.481Z,19.28
2017-05-07T01:29:53.512Z,19.25
2017-05-07T01:30:13.514Z,19.02
2017-05-07T01:30:33.514Z,19.11
2017-05-07T01:30:53.507Z,19.23
2017-05-07T01:31:12.897Z,19.08
2017-05-07T01:31:32.875Z,19.13
2017-05-07T01:31:52.909Z,19.17
2017-05-07T01:32:11.748Z,19.13
2017-05-07T01:32:31.212Z,19.13
2017-05-07T01:32:50.690Z,19.17
2017-05-07T01:33:09.566Z,19.14
2017-05-07T01:33:29.540Z,19.18
2017-05-07T01:33:49.547Z,19.08
2017-05-07T01:34:09.601Z,19.11
2017-05-07T01:34:29.583Z,19.15
2017-05-07T01:34:49.650Z,19.17
2017-05-07T01:35:09.714Z,19.08
2017-05-07T01:35:29.680Z,19.14
2017-05-07T01:35:49.799Z,19.14
2017-05-07T01:36:09.790Z,19.2
2017-05-07T01:36:29.830Z,19.06
2017-05-07T01:36:49.805Z,19.06
2017-05-07T01:37:09.769Z,18.98
2017-05-07T01:37:29.816Z,19.11
2017-05-07T01:37:49.795Z,19.06
2017-05-07T01:38:09.248Z,19.14
2017-05-07T01:38:28.668Z,18.99
2017-05-07T01:38:48.664Z,19.17
2017-05-07T01:39:08.640Z,19.2
2017-05-07T01:39:28.618Z,19.2
2017-05-07T01:39:48.597Z,19.17
2017-05-07T01:40:08.066Z,19.18
2017-05-07T01:40:28.101Z,19.14
2017-05-07T01:40:47.597Z,19.06
2017-05-07T01:41:07.522Z,19.08
2017-05-07T01:41:26.937Z,18.97
2017-05-07T01:41:51.345Z,18.99
2017-05-07T01:42:10.802Z,19.11
2017-05-07T01:42:30.757Z,18.99
2017-05-07T01:42:50.733Z,19.11
2017-05-07T01:43:10.157Z,18.98
2017-05-07T01:43:30.163Z,19.08
2017-05-07T01:43:50.138Z,19.02
2017-05-07T01:44:09.556Z,19.15
2017-05-07T01:44:28.953Z,19.02
2017-05-07T01:44:48.973Z,19.17
2017-05-07T01:45:08.488Z,18.97
2017-05-07T01:45:27.977Z,18.98
2017-05-07T01:45:47.943Z,18.95
2017-05-07T01:46:07.938Z,19.01
2017-05-07T01:46:27.413Z,18.99
2017-05-07T01:46:47.424Z,19.14
2017-05-07T01:47:07.478Z,19.01
2017-05-07T01:47:26.389Z,18.98
2017-05-07T01:47:46.592Z,18.98
2017-05-07T01:48:06.037Z,18.95
2017-05-07T01:48:26.036Z,18.97
2017-05-07T01:48:46.030Z,18.95
2017-05-07T01:49:06.095Z,18.98
2017-05-07T01:49:26.123Z,18.98
2017-05-07T01:49:46.108Z,18.95
2017-05-07T01:50:05.561Z,19.09
2017-05-07T01:50:25.001Z,19.08
2017-05-07T01:50:44.436Z,19.06
2017-05-07T01:51:04.407Z,19.17
2017-05-07T01:51:24.354Z,18.99
2017-05-07T01:51:43.738Z,18.99
2017-05-07T01:52:03.710Z,18.94
2017-05-07T01:52:23.719Z,19.14
2017-05-07T01:52:43.654Z,18.97
2017-05-07T01:53:03.613Z,19.15
2017-05-07T01:53:23.580Z,19.06
2017-05-07T01:53:43.012Z,19.17
2017-05-07T01:54:03.024Z,19.06
2017-05-07T01:54:23.011Z,19.06
2017-05-07T01:54:42.966Z,19.13
2017-05-07T01:55:02.988Z,19.08
2017-05-07T01:55:22.093Z,19.06
2017-05-07T01:55:41.504Z,18.95
2017-05-07T01:56:01.473Z,19.05
2017-05-07T01:56:21.489Z,19.02
2017-05-07T01:56:41.477Z,19.01
2017-05-07T01:57:01.443Z,19.06
2017-05-07T01:57:20.886Z,18.98
2017-05-07T01:57:40.893Z,19.05
2017-05-07T01:58:00.908Z,18.95
2017-05-07T01:58:20.350Z,18.98
2017-05-07T01:58:40.367Z,18.95
2017-05-07T01:59:00.290Z,19.01
2017-05-07T01:59:20.342Z,18.97
2017-05-07T01:59:39.809Z,19.01
2017-05-07T01:59:59.908Z,18.95
2017-05-07T02:00:19.917Z,18.92
2017-05-07T02:00:39.354Z,18.98
2017-05-07T02:00:59.345Z,18.99
2017-05-07T02:01:18.774Z,18.95
2017-05-07T02:01:40.111Z,18.98
2017-05-07T02:02:01.101Z,19.01
2017-05-07T02:02:19.947Z,19.09
2017-05-07T02:02:38.896Z,18.94
2017-05-07T02:02:58.849Z,19.01
2017-05-07T02:03:18.283Z,19.11
2017-05-07T02:03:38.257Z,19.01
2017-05-07T02:03:58.248Z,19.01
2017-05-07T02:04:18.240Z,19.05
2017-05-07T02:04:38.220Z,18.98
2017-05-07T02:04:58.220Z,19.17
2017-05-07T02:05:17.069Z,19.02
2017-05-07T02:05:36.502Z,19.15
2017-05-07T02:05:56.526Z,19.11
2017-05-07T02:06:16.520Z,19.09
2017-05-07T02:06:35.932Z,18.97
2017-05-07T02:06:55.315Z,18.97
2017-05-07T02:07:15.324Z,19.01
2017-05-07T02:07:35.283Z,19.01
2017-05-07T02:07:55.267Z,19.15
2017-05-07T02:08:15.265Z,19.08
2017-05-07T02:08:35.250Z,19.11
2017-05-07T02:08:55.240Z,19.13
2017-05-07T02:09:14.661Z,19.09
2017-05-07T02:09:34.077Z,19.11
2017-05-07T02:09:53.496Z,19.17
2017-05-07T02:10:13.469Z,19.2
2017-05-07T02:10:33.562Z,19.13
2017-05-07T02:10:53.057Z,19.05
2017-05-07T02:11:12.484Z,19.01
2017-05-07T02:11:32.443Z,19.11
2017-05-07T02:11:52.481Z,18.95
2017-05-07T02:12:12.459Z,19.02
2017-05-07T02:12:32.034Z,18.99
2017-05-07T02:12:51.704Z,19.02
2017-05-07T02:13:11.730Z,19.01
2017-05-07T02:13:31.759Z,18.97
2017-05-07T02:13:51.177Z,19.09
2017-05-07T02:14:10.724Z,19.08
2017-05-07T02:14:30.816Z,19.05
2017-05-07T02:14:50.258Z,19.13
2017-05-07T02:15:10.237Z,19.08
2017-05-07T02:15:30.214Z,19.15
2017-05-07T02:15:50.244Z,19.17
2017-05-07T02:16:09.629Z,19.14
2017-05-07T02:16:29.602Z,19.02
2017-05-07T02:16:49.614Z,19.17
2017-05-07T02:17:09.606Z,19.13
2017-05-07T02:17:29.581Z,19.17
2017-05-07T02:17:49.558Z,19.17
2017-05-07T02:18:09.518Z,19.08
2017-05-07T02:18:28.386Z,19.14
2017-05-07T02:18:48.400Z,19.08
2017-05-07T02:19:08.349Z,19.08
2017-05-07T02:19:27.796Z,19.11
2017-05-07T02:19:47.242Z,19.15
2017-05-07T02:20:07.217Z,19.11
2017-05-07T02:20:27.183Z,19.06
2017-05-07T02:20:47.141Z,19.13
2017-05-07T02:21:07.126Z,19.15
2017-05-07T02:21:26.505Z,19.02
2017-05-07T02:21:46.486Z,19.02
2017-05-07T02:22:06.475Z,19.2
2017-05-07T02:22:26.447Z,19.05
2017-05-07T02:22:46.510Z,18.99
2017-05-07T02:23:06.514Z,19.13
2017-05-07T02:23:25.958Z,19.14
2017-05-07T02:23:45.945Z,19.08
2017-05-07T02:24:05.940Z,19.09
2017-05-07T02:24:25.932Z,19.09
2017-05-07T02:24:45.912Z,19.14
2017-05-07T02:25:05.942Z,19.01
2017-05-07T02:25:25.429Z,19.13
2017-05-07T02:25:45.483Z,18.99
2017-05-07T02:26:05.636Z,19.11
2017-05-07T02:26:25.103Z,18.97
2017-05-07T02:26:44.616Z,19.01
2017-05-07T02:27:04.706Z,18.94
2017-05-07T02:27:24.163Z,18.98
2017-05-07T02:27:43.589Z,19.01
2017-05-07T02:28:03.571Z,19.08
2017-05-07T02:28:23.559Z,18.98
2017-05-07T02:28:43.004Z,18.95
2017-05-07T02:29:03.109Z,18.97
2017-05-07T02:29:23.105Z,18.99
2017-05-07T02:29:42.552Z,19.09
2017-05-07T02:30:02.003Z,18.97
2017-05-07T02:30:21.427Z,18.95
2017-05-07T02:30:41.467Z,19.01
2017-05-07T02:31:01.542Z,18.98
2017-05-07T02:31:20.940Z,18.99
2017-05-07T02:31:40.938Z,18.99
2017-05-07T02:32:01.022Z,19.01
2017-05-07T02:32:20.442Z,19.15
2017-05-07T02:32:40.430Z,19.09
2017-05-07T02:33:00.370Z,19.13
2017-05-07T02:33:19.856Z,18.95
2017-05-07T02:33:39.844Z,18.97
2017-05-07T02:33:59.844Z,18.94
2017-05-07T02:34:19.274Z,18.92
2017-05-07T02:34:39.238Z,18.94
2017-05-07T02:34:59.204Z,18.89
2017-05-07T02:35:18.634Z,18.97
2017-05-07T02:35:38.597Z,18.98
2017-05-07T02:35:58.566Z,18.97
2017-05-07T02:36:17.970Z,18.89
2017-05-07T02:36:37.952Z,18.89
2017-05-07T02:36:57.914Z,18.98
2017-05-07T02:37:17.324Z,18.92
2017-05-07T02:37:37.621Z,18.95
2017-05-07T02:37:57.650Z,18.87
2017-05-07T02:38:17.080Z,18.82
2017-05-07T02:38:37.074Z,18.94
2017-05-07T02:38:57.016Z,18.92
2017-05-07T02:39:16.985Z,18.95
2017-05-07T02:39:36.983Z,18.98
2017-05-07T02:39:55.809Z,18.95
2017-05-07T02:40:15.969Z,18.94
2017-05-07T02:40:35.935Z,18.98
2017-05-07T02:40:56.058Z,19.02
2017-05-07T02:41:16.050Z,19.08
2017-05-07T02:41:36.032Z,19.11
2017-05-07T02:41:56.004Z,19.14
2017-05-07T02:42:15.974Z,19.13
2017-05-07T02:42:38.816Z,19.02
2017-05-07T02:42:58.216Z,18.98
2017-05-07T02:43:17.621Z,19.08
2017-05-07T02:43:37.591Z,18.98
2017-05-07T02:43:57.567Z,19.08
2017-05-07T02:44:17.538Z,19.02
2017-05-07T02:44:37.497Z,19.01
2017-05-07T02:44:57.466Z,19.15
2017-05-07T02:45:16.902Z,19.09
2017-05-07T02:45:36.856Z,19.02
2017-05-07T02:45:56.268Z,19.17
2017-05-07T02:46:16.211Z,19.09
2017-05-07T02:46:36.170Z,19.01
2017-05-07T02:46:55.688Z,18.99
2017-05-07T02:47:15.097Z,18.95
2017-05-07T02:47:34.529Z,19.08
2017-05-07T02:47:54.520Z,18.99
2017-05-07T02:48:13.938Z,18.99
2017-05-07T02:48:33.943Z,18.92
2017-05-07T02:48:53.877Z,18.89
2017-05-07T02:49:13.277Z,18.92
2017-05-07T02:49:32.708Z,19.01
2017-05-07T02:49:52.649Z,18.92
2017-05-07T02:50:11.531Z,18.92
2017-05-07T02:50:31.574Z,18.92
2017-05-07T02:50:51.532Z,18.89
2017-05-07T02:51:11.560Z,18.89
2017-05-07T02:51:31.515Z,18.97
2017-05-07T02:51:50.921Z,18.92
2017-05-07T02:52:10.853Z,18.83
2017-05-07T02:52:30.278Z,18.86
2017-05-07T02:52:50.255Z,18.87
2017-05-07T02:53:10.448Z,18.89
2017-05-07T02:53:30.427Z,18.8
2017-05-07T02:53:50.409Z,18.87
2017-05-07T02:54:10.391Z,18.9
2017-05-07T02:54:30.342Z,18.86
2017-05-07T02:54:50.313Z,18.9
2017-05-07T02:55:10.258Z,18.86
2017-05-07T02:55:30.248Z,18.92
2017-05-07T02:55:50.194Z,18.89
2017-05-07T02:56:10.136Z,18.92
2017-05-07T02:56:30.082Z,18.92
2017-05-07T02:56:50.119Z,18.83
2017-05-07T02:57:10.070Z,18.87
2017-05-07T02:57:30.059Z,18.9
2017-05-07T02:57:50.047Z,18.95
2017-05-07T02:58:10.092Z,18.95
2017-05-07T02:58:29.519Z,18.89
2017-05-07T02:58:49.468Z,18.98
2017-05-07T02:59:09.502Z,18.97
2017-05-07T02:59:29.505Z,18.92
2017-05-07T02:59:49.483Z,18.92
2017-05-07T03:00:08.919Z,18.89
2017-05-07T03:00:28.347Z,18.95
2017-05-07T03:00:48.332Z,18.97
2017-05-07T03:01:07.768Z,18.92
2017-05-07T03:01:27.732Z,18.95
2017-05-07T03:01:47.665Z,18.89
2017-05-07T03:02:07.042Z,18.87
2017-05-07T03:02:26.972Z,18.82
2017-05-07T03:02:46.404Z,18.83
2017-05-07T03:03:06.369Z,18.95
2017-05-07T03:03:25.781Z,18.9
2017-05-07T03:03:45.726Z,18.8
2017-05-07T03:04:05.724Z,18.87
2017-05-07T03:04:25.131Z,18.94
2017-05-07T03:04:44.538Z,18.84
2017-05-07T03:05:03.955Z,18.84
2017-05-07T03:05:23.953Z,18.89
2017-05-07T03:05:43.955Z,18.83
2017-05-07T03:06:05.232Z,18.87
2017-05-07T03:06:24.613Z,18.89
2017-05-07T03:06:44.611Z,18.95
2017-05-07T03:07:04.570Z,18.98
2017-05-07T03:07:24.531Z,18.92
2017-05-07T03:07:44.544Z,18.9
2017-05-07T03:08:04.546Z,18.97
2017-05-07T03:08:23.936Z,18.86
2017-05-07T03:08:43.940Z,18.97
2017-05-07T03:09:03.908Z,18.92
2017-05-07T03:09:23.912Z,18.89
2017-05-07T03:09:43.876Z,18.9
2017-05-07T03:10:03.874Z,18.84
2017-05-07T03:10:23.836Z,18.84
2017-05-07T03:10:43.814Z,18.8
2017-05-07T03:11:03.786Z,18.84
2017-05-07T03:11:23.777Z,18.82
2017-05-07T03:11:43.730Z,18.82
2017-05-07T03:12:03.704Z,18.84
2017-05-07T03:12:23.151Z,18.89
2017-05-07T03:12:43.239Z,18.86
2017-05-07T03:13:03.227Z,18.84
2017-05-07T03:13:23.181Z,18.92
2017-05-07T03:13:43.165Z,18.94
2017-05-07T03:14:03.154Z,18.84
2017-05-07T03:14:22.563Z,18.79
2017-05-07T03:14:42.529Z,18.86
2017-05-07T03:15:02.496Z,18.89
2017-05-07T03:15:22.472Z,18.9
2017-05-07T03:15:42.442Z,18.86
2017-05-07T03:16:02.426Z,18.86
2017-05-07T03:16:21.848Z,18.87
2017-05-07T03:16:41.867Z,18.86
2017-05-07T03:17:01.821Z,18.87
2017-05-07T03:17:20.658Z,18.89
2017-05-07T03:17:40.790Z,18.79
2017-05-07T03:18:00.763Z,18.83
2017-05-07T03:18:20.759Z,18.73
2017-05-07T03:18:40.738Z,18.8
2017-05-07T03:19:00.717Z,18.74
2017-05-07T03:19:20.686Z,18.8
2017-05-07T03:19:40.638Z,18.77
2017-05-07T03:20:00.651Z,18.76
2017-05-07T03:20:19.515Z,18.68
2017-05-07T03:20:39.497Z,18.77
2017-05-07T03:20:59.468Z,18.73
2017-05-07T03:21:19.443Z,18.74
2017-05-07T03:21:39.401Z,18.74
2017-05-07T03:21:59.379Z,18.71
2017-05-07T03:22:19.332Z,18.77
2017-05-07T03:22:38.739Z,18.74
2017-05-07T03:22:58.145Z,18.64
2017-05-07T03:23:17.553Z,18.62
2017-05-07T03:23:37.539Z,18.58
2017-05-07T03:23:57.539Z,18.57
2017-05-07T03:24:17.880Z,18.73
2017-05-07T03:24:37.854Z,18.62
2017-05-07T03:24:57.805Z,18.68
2017-05-07T03:25:17.755Z,18.69
2017-05-07T03:25:37.703Z,18.57
2017-05-07T03:25:57.692Z,18.71
2017-05-07T03:26:17.674Z,18.58
2017-05-07T03:26:37.645Z,18.61
2017-05-07T03:26:57.605Z,18.64
2017-05-07T03:27:17.587Z,18.59
2017-05-07T03:27:36.997Z,18.71
2017-05-07T03:27:56.980Z,18.64
2017-05-07T03:28:16.954Z,18.58
2017-05-07T03:28:36.928Z,18.5
2017-05-07T03:28:57.278Z,18.53
2017-05-07T03:29:17.238Z,18.59
2017-05-07T03:29:37.180Z,18.58
2017-05-07T03:29:57.202Z,18.59
2017-05-07T03:30:16.632Z,18.65
2017-05-07T03:30:36.600Z,18.62
2017-05-07T03:30:56.584Z,18.47
2017-05-07T03:31:16.022Z,18.61
2017-05-07T03:31:36.301Z,18.58
2017-05-07T03:31:56.283Z,18.5
2017-05-07T03:32:15.690Z,18.62
2017-05-07T03:32:35.101Z,18.62
2017-05-07T03:32:55.088Z,18.57
2017-05-07T03:33:15.069Z,18.61
2017-05-07T03:33:35.000Z,18.61
2017-05-07T03:33:54.970Z,18.62
2017-05-07T03:34:14.391Z,18.59
2017-05-07T03:34:33.815Z,18.64
2017-05-07T03:34:53.768Z,18.57
2017-05-07T03:35:13.227Z,18.59
2017-05-07T03:35:33.218Z,18.65
2017-05-07T03:35:52.610Z,18.69
2017-05-07T03:36:12.602Z,18.64
2017-05-07T03:36:32.609Z,18.65
2017-05-07T03:36:52.035Z,18.62
2017-05-07T03:37:11.450Z,18.61
2017-05-07T03:37:31.546Z,18.61
2017-05-07T03:37:51.509Z,18.65
2017-05-07T03:38:11.486Z,18.65
2017-05-07T03:38:31.455Z,18.65
2017-05-07T03:38:50.856Z,18.68
2017-05-07T03:39:10.803Z,18.67
2017-05-07T03:39:30.218Z,18.64
2017-05-07T03:39:50.176Z,18.62
2017-05-07T03:40:09.589Z,18.59
2017-05-07T03:40:29.583Z,18.73
2017-05-07T03:40:49.587Z,18.8
2017-05-07T03:41:09.540Z,18.71
2017-05-07T03:41:29.496Z,18.69
2017-05-07T03:41:48.920Z,18.79
2017-05-07T03:42:07.764Z,18.77
2017-05-07T03:42:27.745Z,18.82
2017-05-07T03:42:47.734Z,18.8
2017-05-07T03:43:07.724Z,18.77
2017-05-07T03:43:27.713Z,18.82
2017-05-07T03:43:47.161Z,18.76
2017-05-07T03:44:07.162Z,18.82
2017-05-07T03:44:26.565Z,18.77
2017-05-07T03:44:46.561Z,18.8
2017-05-07T03:45:08.599Z,18.83
2017-05-07T03:45:27.451Z,18.77
2017-05-07T03:45:47.433Z,18.83
2017-05-07T03:46:07.403Z,18.77
2017-05-07T03:46:26.822Z,18.82
2017-05-07T03:46:46.923Z,18.84
2017-05-07T03:47:06.335Z,18.83
2017-05-07T03:47:25.765Z,18.83
2017-05-07T03:47:45.760Z,18.73
2017-05-07T03:48:05.731Z,18.76
2017-05-07T03:48:25.712Z,18.83
2017-05-07T03:48:45.653Z,18.87
2017-05-07T03:49:05.631Z,18.8
2017-05-07T03:49:25.011Z,18.83
2017-05-07T03:49:44.986Z,18.83
2017-05-07T03:50:04.971Z,18.84
2017-05-07T03:50:24.943Z,18.8
2017-05-07T03:50:44.902Z,18.79
2017-05-07T03:51:04.882Z,18.77
2017-05-07T03:51:24.326Z,18.64
2017-05-07T03:51:44.325Z,18.65
2017-05-07T03:52:04.288Z,18.77
2017-05-07T03:52:23.673Z,18.68
2017-05-07T03:52:43.623Z,18.73
2017-05-07T03:53:03.611Z,18.65
2017-05-07T03:53:23.573Z,18.59
2017-05-07T03:53:43.558Z,18.68
2017-05-07T03:54:02.977Z,18.65
2017-05-07T03:54:22.397Z,18.71
2017-05-07T03:54:42.371Z,18.62
2017-05-07T03:55:02.340Z,18.65
2017-05-07T03:55:22.300Z,18.69
2017-05-07T03:55:42.267Z,18.69
2017-05-07T03:56:02.250Z,18.67
2017-05-07T03:56:22.247Z,18.65
2017-05-07T03:56:42.200Z,18.61
2017-05-07T03:57:02.245Z,18.62
2017-05-07T03:57:22.319Z,18.69
2017-05-07T03:57:42.465Z,18.73
2017-05-07T03:58:02.461Z,18.64
2017-05-07T03:58:22.478Z,18.61
2017-05-07T03:58:41.882Z,18.58
2017-05-07T03:59:01.871Z,18.67
2017-05-07T03:59:21.883Z,18.58
2017-05-07T03:59:41.988Z,18.69
2017-05-07T04:00:01.961Z,18.62
2017-05-07T04:00:21.382Z,18.64
2017-05-07T04:00:41.368Z,18.67
2017-05-07T04:01:01.375Z,18.69
2017-05-07T04:01:20.806Z,18.61
2017-05-07T04:01:40.777Z,18.73
2017-05-07T04:02:00.755Z,18.67
2017-05-07T04:02:20.135Z,18.65
2017-05-07T04:02:39.678Z,18.74
2017-05-07T04:02:59.615Z,18.73
2017-05-07T04:03:19.600Z,18.61
2017-05-07T04:03:39.584Z,18.71
2017-05-07T04:03:59.543Z,18.62
2017-05-07T04:04:19.549Z,18.65
2017-05-07T04:04:39.538Z,18.64
2017-05-07T04:04:59.898Z,18.61
2017-05-07T04:05:19.886Z,18.73
2017-05-07T04:05:39.320Z,18.73
2017-05-07T04:05:59.037Z,18.82
2017-05-07T04:06:18.478Z,18.8
2017-05-07T04:06:38.466Z,18.62
2017-05-07T04:06:58.447Z,18.79
2017-05-07T04:07:18.413Z,18.76
2017-05-07T04:07:38.385Z,18.83
2017-05-07T04:07:58.371Z,18.83
2017-05-07T04:08:18.364Z,18.77
2017-05-07T04:08:38.303Z,18.82
2017-05-07T04:08:58.305Z,18.82
2017-05-07T04:09:18.316Z,18.87
2017-05-07T04:09:38.239Z,18.92
2017-05-07T04:09:58.226Z,18.83
2017-05-07T04:10:17.628Z,18.89
2017-05-07T04:10:36.494Z,18.87
2017-05-07T04:10:56.477Z,18.92
2017-05-07T04:11:16.443Z,18.87
2017-05-07T04:11:36.420Z,18.84
2017-05-07T04:12:30.222Z,18.97
2017-05-07T04:12:50.210Z,18.94
2017-05-07T04:13:10.197Z,18.98
2017-05-07T04:13:30.171Z,18.94
2017-05-07T04:13:49.622Z,18.89
2017-05-07T04:14:09.589Z,18.8
2017-05-07T04:14:28.958Z,18.9
2017-05-07T04:14:48.957Z,18.82
2017-05-07T04:15:08.964Z,18.82
2017-05-07T04:15:28.355Z,18.9
2017-05-07T04:15:47.773Z,18.92
2017-05-07T04:16:07.730Z,18.92
2017-05-07T04:16:27.715Z,18.9